createdAt,value
2022-07-30T00:02:04.658Z,21.85
2022-07-30T00:04:33.469Z,21.91
2022-07-30T00:07:01.892Z,21.80
2022-07-30T00:09:30.003Z,21.69
2022-07-30T00:12:02.207Z,21.39
2022-07-30T00:14:30.759Z,21.20
2022-07-30T00:17:00.126Z,21.19
2022-07-30T00:19:28.806Z,21.18
2022-07-30T00:21:57.068Z,21.09
2022-07-30T00:24:25.000Z,20.89
2022-07-30T00:26:52.852Z,20.77
2022-07-30T00:29:20.883Z,20.64
2022-07-30T00:31:48.704Z,20.63
2022-07-30T00:34:17.876Z,20.46
2022-07-30T00:36:45.746Z,20.37
2022-07-30T00:39:13.644Z,20.31
2022-07-30T00:41:54.929Z,20.18
2022-07-30T00:44:22.893Z,20.16
2022-07-30T00:46:51.166Z,20.19
2022-07-30T00:49:20.718Z,20.22
2022-07-30T00:51:49.305Z,20.24
2022-07-30T00:54:17.716Z,20.31
2022-07-30T00:56:45.822Z,20.22
2022-07-30T00:59:15.554Z,20.21
2022-07-30T01:01:43.428Z,20.10
2022-07-30T01:04:12.594Z,20.07
2022-07-30T01:06:41.947Z,20.08
2022-07-30T01:09:10.027Z,19.93
2022-07-30T01:11:39.253Z,19.83
2022-07-30T01:14:08.522Z,19.82
2022-07-30T01:16:38.007Z,19.86
2022-07-30T01:19:28.699Z,19.81
2022-07-30T01:22:08.354Z,19.72
2022-07-30T01:24:37.863Z,19.85
2022-07-30T01:27:07.779Z,19.82
2022-07-30T01:29:36.333Z,19.83
2022-07-30T01:32:07.313Z,19.65
2022-07-30T01:34:35.919Z,19.62
2022-07-30T01:37:04.781Z,19.70
2022-07-30T01:39:33.128Z,19.50
2022-07-30T01:42:05.227Z,19.55
2022-07-30T01:44:35.154Z,19.49
2022-07-30T01:47:03.991Z,19.44
2022-07-30T01:49:35.969Z,19.31
2022-07-30T01:52:04.739Z,19.34
2022-07-30T01:54:33.563Z,19.38
2022-07-30T01:57:03.311Z,19.32
2022-07-30T01:59:34.794Z,19.16
2022-07-30T02:02:03.326Z,19.26
2022-07-30T02:04:31.599Z,19.21
2022-07-30T02:07:04.134Z,19.17
2022-07-30T02:09:39.088Z,19.19
2022-07-30T02:12:30.940Z,19.08
2022-07-30T02:15:12.203Z,18.94
2022-07-30T02:17:45.167Z,18.90
2022-07-30T02:20:15.711Z,18.87
2022-07-30T02:22:48.462Z,18.86
2022-07-30T02:25:19.070Z,18.92
2022-07-30T02:27:50.358Z,18.89
2022-07-30T02:30:20.208Z,18.94
2022-07-30T02:32:48.571Z,18.89
2022-07-30T02:35:19.634Z,18.82
2022-07-30T02:37:49.681Z,18.70
2022-07-30T02:40:19.668Z,18.55
2022-07-30T02:42:50.265Z,18.41
2022-07-30T02:45:24.077Z,18.41
2022-07-30T02:47:53.609Z,18.42
2022-07-30T02:50:22.074Z,18.59
2022-07-30T02:52:50.969Z,18.64
2022-07-30T02:55:19.983Z,18.63
2022-07-30T02:57:48.425Z,18.53
2022-07-30T03:00:16.939Z,18.46
2022-07-30T03:02:46.880Z,18.49
2022-07-30T03:05:15.778Z,18.44
2022-07-30T03:07:44.344Z,18.45
2022-07-30T03:10:12.962Z,18.47
2022-07-30T03:12:43.269Z,18.39
2022-07-30T03:15:12.197Z,18.42
2022-07-30T03:17:43.061Z,18.48
2022-07-30T03:20:15.201Z,18.42
2022-07-30T03:22:46.994Z,18.45
2022-07-30T03:25:16.506Z,18.49
2022-07-30T03:27:46.046Z,18.48
2022-07-30T03:30:14.894Z,18.42
2022-07-30T03:32:43.365Z,18.23
2022-07-30T03:35:17.237Z,18.32
2022-07-30T03:37:47.426Z,18.28
2022-07-30T03:40:15.649Z,18.20
2022-07-30T03:42:43.597Z,18.16
2022-07-30T03:45:13.686Z,18.09
2022-07-30T03:47:42.654Z,18.07
2022-07-30T03:50:13.728Z,18.03
2022-07-30T03:52:43.510Z,18.13
2022-07-30T03:55:16.521Z,18.21
2022-07-30T03:57:51.016Z,18.18
2022-07-30T04:00:22.814Z,18.22
2022-07-30T04:02:53.349Z,18.16
2022-07-30T04:05:47.805Z,17.97
2022-07-30T04:08:15.728Z,18.00
2022-07-30T04:10:45.143Z,18.05
2022-07-30T04:13:32.767Z,18.11
2022-07-30T04:16:39.240Z,18.23
2022-07-30T04:18:56.649Z,18.22
2022-07-30T04:21:27.220Z,18.23
2022-07-30T04:24:04.251Z,18.34
2022-07-30T04:26:35.824Z,18.36
2022-07-30T04:29:07.032Z,18.43
2022-07-30T04:31:40.438Z,18.49
2022-07-30T04:34:48.667Z,18.58
2022-07-30T04:37:23.713Z,18.62
2022-07-30T04:39:54.456Z,18.62
2022-07-30T04:42:23.035Z,18.75
2022-07-30T04:45:08.829Z,18.69
2022-07-30T04:47:53.764Z,18.73
2022-07-30T04:50:43.402Z,18.83
2022-07-30T04:53:16.729Z,18.64
2022-07-30T04:55:50.625Z,18.83
2022-07-30T04:58:21.161Z,18.98
2022-07-30T05:00:49.862Z,18.96
2022-07-30T05:03:20.378Z,19.06
2022-07-30T05:05:57.156Z,19.21
2022-07-30T05:08:28.313Z,19.07
2022-07-30T05:10:56.984Z,18.89
2022-07-30T05:13:27.604Z,19.03
2022-07-30T05:16:03.342Z,19.07
2022-07-30T05:18:31.405Z,19.17
2022-07-30T05:20:59.264Z,19.21
2022-07-30T05:23:32.441Z,19.32
2022-07-30T05:26:09.544Z,19.26
2022-07-30T05:28:42.323Z,19.33
2022-07-30T05:31:14.484Z,19.36
2022-07-30T05:33:49.524Z,19.48
2022-07-30T05:36:19.244Z,19.40
2022-07-30T05:38:49.133Z,19.23
2022-07-30T05:41:45.969Z,19.40
2022-07-30T05:44:22.249Z,19.84
2022-07-30T05:46:51.989Z,19.77
2022-07-30T05:49:20.413Z,19.77
2022-07-30T05:51:48.353Z,19.96
2022-07-30T05:54:19.898Z,20.22
2022-07-30T05:57:12.823Z,20.48
2022-07-30T05:59:41.517Z,20.29
2022-07-30T06:02:10.609Z,20.03
2022-07-30T06:05:08.085Z,20.05
2022-07-30T06:07:36.087Z,20.16
2022-07-30T06:10:07.747Z,20.14
2022-07-30T06:12:39.181Z,20.34
2022-07-30T06:15:09.711Z,20.28
2022-07-30T06:17:44.076Z,20.43
2022-07-30T06:20:39.430Z,20.39
2022-07-30T06:23:13.284Z,20.62
2022-07-30T06:26:01.701Z,20.49
2022-07-30T06:28:38.730Z,21.02
2022-07-30T06:31:16.154Z,20.91
2022-07-30T06:33:44.220Z,20.86
2022-07-30T06:36:14.060Z,21.03
2022-07-30T06:38:59.393Z,21.31
2022-07-30T06:41:48.543Z,21.27
2022-07-30T06:44:16.657Z,21.16
2022-07-30T06:47:07.609Z,20.88
2022-07-30T06:49:38.074Z,21.17
2022-07-30T06:52:08.392Z,21.27
2022-07-30T06:54:37.033Z,21.74
2022-07-30T06:57:14.365Z,21.45
2022-07-30T06:59:56.542Z,21.57
2022-07-30T07:02:46.165Z,21.79
2022-07-30T07:05:15.285Z,21.83
2022-07-30T07:07:58.255Z,22.03
2022-07-30T07:10:30.041Z,21.90
2022-07-30T07:13:15.983Z,21.57
2022-07-30T07:15:44.078Z,22.05
2022-07-30T07:18:16.915Z,22.39
2022-07-30T07:20:59.182Z,22.25
2022-07-30T07:23:39.783Z,22.68
2022-07-30T07:26:22.556Z,22.86
2022-07-30T07:28:52.430Z,23.03
2022-07-30T07:31:20.301Z,22.82
2022-07-30T07:34:08.186Z,23.01
2022-07-30T07:36:36.493Z,23.00
2022-07-30T07:39:09.668Z,22.90
2022-07-30T07:41:48.885Z,23.11
2022-07-30T07:44:21.446Z,22.43
2022-07-30T07:46:49.315Z,22.85
2022-07-30T07:49:17.515Z,23.08
2022-07-30T07:51:48.882Z,22.97
2022-07-30T07:54:22.266Z,22.65
2022-07-30T07:56:53.153Z,23.09
2022-07-30T07:59:36.512Z,22.64
2022-07-30T08:02:12.847Z,22.83
2022-07-30T08:05:04.147Z,22.89
2022-07-30T08:07:47.177Z,23.47
2022-07-30T08:10:33.398Z,23.57
2022-07-30T08:13:52.247Z,23.68
2022-07-30T08:16:28.037Z,23.49
2022-07-30T08:19:14.922Z,23.35
2022-07-30T08:21:48.871Z,24.04
2022-07-30T08:24:18.543Z,23.66
2022-07-30T08:26:46.393Z,23.04
2022-07-30T08:29:17.226Z,23.48
2022-07-30T08:31:47.520Z,23.99
2022-07-30T08:34:15.684Z,23.73
2022-07-30T08:36:44.645Z,24.24
2022-07-30T08:39:12.556Z,24.24
2022-07-30T08:41:42.655Z,24.42
2022-07-30T08:44:12.825Z,24.24
2022-07-30T08:46:47.015Z,24.22
2022-07-30T08:49:32.648Z,24.80
2022-07-30T08:52:00.840Z,24.76
2022-07-30T08:54:42.267Z,24.16
2022-07-30T08:57:10.597Z,24.30
2022-07-30T08:59:59.470Z,24.34
2022-07-30T09:02:29.710Z,24.24
2022-07-30T09:05:04.407Z,24.87
2022-07-30T09:07:34.096Z,25.11
2022-07-30T09:10:03.817Z,24.81
2022-07-30T09:12:37.787Z,24.73
2022-07-30T09:15:09.034Z,24.58
2022-07-30T09:17:48.357Z,24.63
2022-07-30T09:20:17.914Z,25.07
2022-07-30T09:22:48.259Z,25.04
2022-07-30T09:25:39.822Z,25.24
2022-07-30T09:28:31.002Z,25.20
2022-07-30T09:31:22.485Z,25.24
2022-07-30T09:34:24.610Z,24.57
2022-07-30T09:37:20.272Z,24.67
2022-07-30T09:40:18.486Z,24.95
2022-07-30T09:43:27.873Z,25.48
2022-07-30T09:46:08.080Z,25.72
2022-07-30T09:48:35.926Z,25.77
2022-07-30T09:51:03.974Z,25.92
2022-07-30T09:53:34.678Z,26.24
2022-07-30T09:56:03.338Z,26.07
2022-07-30T09:58:45.450Z,26.25
2022-07-30T10:01:14.893Z,26.42
2022-07-30T10:04:06.433Z,26.50
2022-07-30T10:06:56.516Z,26.56
2022-07-30T10:09:37.096Z,26.94
2022-07-30T10:12:10.716Z,26.72
2022-07-30T10:14:44.223Z,25.43
2022-07-30T10:17:15.354Z,26.21
2022-07-30T10:19:54.650Z,26.81
2022-07-30T10:22:54.821Z,26.72
2022-07-30T10:25:49.176Z,26.67
2022-07-30T10:28:41.959Z,26.50
2022-07-30T10:31:47.352Z,26.24
2022-07-30T10:33:58.781Z,26.98
2022-07-30T10:36:27.008Z,27.36
2022-07-30T10:38:56.165Z,27.42
2022-07-30T10:41:42.531Z,27.27
2022-07-30T10:44:21.288Z,27.22
2022-07-30T10:46:57.672Z,27.54
2022-07-30T10:49:26.797Z,27.92
2022-07-30T10:51:56.049Z,27.18
2022-07-30T10:54:40.110Z,27.51
2022-07-30T10:57:15.026Z,28.26
2022-07-30T11:00:15.119Z,28.44
2022-07-30T11:03:14.904Z,28.16
2022-07-30T11:05:45.615Z,28.42
2022-07-30T11:08:36.347Z,28.70
2022-07-30T11:11:19.334Z,28.27
2022-07-30T11:13:57.430Z,28.69
2022-07-30T11:16:26.431Z,28.05
2022-07-30T11:19:55.602Z,28.01
2022-07-30T11:22:28.304Z,28.27
2022-07-30T11:24:58.131Z,29.25
2022-07-30T11:27:41.329Z,30.11
2022-07-30T11:30:34.938Z,29.50
2022-07-30T11:33:23.659Z,29.31
2022-07-30T11:36:11.923Z,29.05
2022-07-30T11:38:53.292Z,29.72
2022-07-30T11:41:21.482Z,29.47
2022-07-30T11:43:49.471Z,30.61
2022-07-30T11:46:28.768Z,30.72
2022-07-30T11:48:59.702Z,30.28
2022-07-30T11:51:28.550Z,29.79
2022-07-30T11:54:03.644Z,29.74
2022-07-30T11:56:31.557Z,30.31
2022-07-30T11:59:03.598Z,30.03
2022-07-30T12:01:33.488Z,30.79
2022-07-30T12:04:04.760Z,29.57
2022-07-30T12:06:33.550Z,30.01
2022-07-30T12:09:01.666Z,29.34
2022-07-30T12:11:33.396Z,30.57
2022-07-30T12:14:02.793Z,32.10
2022-07-30T12:16:32.971Z,31.81
2022-07-30T12:19:03.107Z,32.64
2022-07-30T12:21:30.964Z,33.33
2022-07-30T12:24:01.232Z,32.11
2022-07-30T12:26:30.769Z,31.75
2022-07-30T12:28:59.377Z,32.73
2022-07-30T12:31:27.709Z,32.56
2022-07-30T12:33:58.339Z,32.53
2022-07-30T12:36:33.240Z,33.50
2022-07-30T12:39:02.063Z,33.20
2022-07-30T12:41:51.237Z,30.84
2022-07-30T12:44:39.600Z,30.99
2022-07-30T12:47:19.282Z,32.42
2022-07-30T12:49:50.431Z,31.97
2022-07-30T12:52:28.478Z,31.52
2022-07-30T12:55:06.585Z,31.34
2022-07-30T12:57:54.704Z,32.39
2022-07-30T13:00:23.165Z,32.29
2022-07-30T13:02:51.214Z,32.89
2022-07-30T13:05:20.704Z,32.73
2022-07-30T13:07:58.982Z,33.20
2022-07-30T13:10:31.229Z,32.92
2022-07-30T13:12:59.792Z,34.13
2022-07-30T13:15:27.660Z,33.86
2022-07-30T13:17:55.638Z,33.38
2022-07-30T13:20:24.967Z,33.07
2022-07-30T13:22:52.887Z,34.13
2022-07-30T13:25:20.989Z,34.00
2022-07-30T13:27:48.936Z,33.45
2022-07-30T13:30:16.983Z,35.53
2022-07-30T13:32:44.832Z,35.93
2022-07-30T13:35:12.798Z,35.06
2022-07-30T13:37:42.078Z,35.57
2022-07-30T13:40:11.330Z,35.77
2022-07-30T13:42:39.203Z,35.72
2022-07-30T13:45:08.071Z,35.51
2022-07-30T13:47:35.981Z,35.28
2022-07-30T13:50:04.034Z,35.61
2022-07-30T13:52:31.898Z,35.20
2022-07-30T13:55:01.266Z,35.51
2022-07-30T13:57:29.220Z,35.06
2022-07-30T13:59:57.174Z,36.05
2022-07-30T14:02:25.100Z,35.30
2022-07-30T14:04:53.278Z,33.65
2022-07-30T14:07:21.339Z,32.86
2022-07-30T14:09:52.725Z,33.87
2022-07-30T14:12:24.003Z,34.06
2022-07-30T14:14:52.064Z,33.36
2022-07-30T14:17:19.989Z,34.25
2022-07-30T14:19:50.230Z,33.92
2022-07-30T14:22:18.453Z,34.81
2022-07-30T14:24:46.557Z,32.67
2022-07-30T14:27:14.626Z,33.09
2022-07-30T14:29:43.897Z,32.73
2022-07-30T14:32:11.797Z,34.53
2022-07-30T14:34:39.893Z,34.50
2022-07-30T14:37:09.703Z,34.74
2022-07-30T14:39:42.089Z,35.12
2022-07-30T14:42:09.967Z,35.51
2022-07-30T14:44:37.981Z,35.51
2022-07-30T14:47:07.807Z,35.57
2022-07-30T14:49:36.421Z,35.33
2022-07-30T14:52:04.456Z,36.18
2022-07-30T14:54:32.449Z,35.77
2022-07-30T14:57:00.862Z,34.82
2022-07-30T14:59:29.433Z,34.97
2022-07-30T15:01:57.587Z,34.81
2022-07-30T15:04:26.929Z,34.12
2022-07-30T15:06:54.892Z,33.99
2022-07-30T15:09:22.818Z,34.83
2022-07-30T15:12:08.616Z,36.60
2022-07-30T15:14:38.230Z,36.01
2022-07-30T15:17:07.987Z,36.82
2022-07-30T15:19:37.294Z,37.10
2022-07-30T15:22:18.017Z,37.60
2022-07-30T15:24:45.897Z,36.66
2022-07-30T15:27:13.961Z,36.51
2022-07-30T15:29:41.908Z,35.79
2022-07-30T15:32:09.898Z,37.78
2022-07-30T15:34:39.163Z,36.31
2022-07-30T15:37:07.091Z,36.01
2022-07-30T15:39:35.753Z,37.05
2022-07-30T15:42:05.943Z,36.26
2022-07-30T15:44:34.620Z,36.66
2022-07-30T15:47:02.845Z,36.99
2022-07-30T15:49:30.798Z,38.29
2022-07-30T15:52:01.671Z,37.05
2022-07-30T15:54:29.798Z,37.95
2022-07-30T15:57:01.135Z,36.98
2022-07-30T15:59:30.096Z,36.92
2022-07-30T16:01:58.012Z,38.07
2022-07-30T16:04:31.290Z,38.07
2022-07-30T16:07:01.859Z,37.57
2022-07-30T16:09:29.930Z,38.07
2022-07-30T16:11:58.408Z,38.36
2022-07-30T16:14:26.654Z,37.92
2022-07-30T16:16:54.572Z,39.05
2022-07-30T16:19:22.512Z,38.76
2022-07-30T16:21:50.550Z,38.54
2022-07-30T16:24:19.902Z,38.67
2022-07-30T16:26:48.004Z,37.36
2022-07-30T16:29:15.912Z,38.08
2022-07-30T16:31:43.843Z,39.48
2022-07-30T16:34:11.707Z,39.20
2022-07-30T16:36:39.724Z,38.05
2022-07-30T16:39:07.599Z,36.92
2022-07-30T16:41:36.917Z,36.26
2022-07-30T16:44:05.317Z,37.06
2022-07-30T16:46:33.246Z,36.75
2022-07-30T16:49:01.169Z,37.99
2022-07-30T16:51:29.164Z,39.10
2022-07-30T16:53:57.170Z,38.16
2022-07-30T16:56:25.118Z,38.08
2022-07-30T16:58:54.502Z,37.36
2022-07-30T17:01:22.564Z,37.21
2022-07-30T17:03:50.496Z,36.26
2022-07-30T17:06:18.484Z,38.61
2022-07-30T17:08:46.430Z,37.15
2022-07-30T17:11:46.646Z,38.08
2022-07-30T17:14:06.613Z,37.88
2022-07-30T17:16:34.804Z,38.40
2022-07-30T17:19:09.645Z,37.73
2022-07-30T17:21:38.983Z,37.77
2022-07-30T17:24:11.462Z,36.01
2022-07-30T17:26:42.882Z,35.60
2022-07-30T17:29:14.697Z,35.60
2022-07-30T17:31:44.295Z,35.83
2022-07-30T17:34:14.640Z,34.48
2022-07-30T17:36:44.347Z,33.95
2022-07-30T17:40:27.664Z,34.70
2022-07-30T17:42:08.691Z,34.47
2022-07-30T17:44:38.221Z,33.76
2022-07-30T17:47:08.828Z,32.61
2022-07-30T17:49:40.486Z,32.12
2022-07-30T17:52:08.784Z,31.41
2022-07-30T17:54:36.702Z,30.54
2022-07-30T17:57:04.698Z,30.26
2022-07-30T17:59:33.005Z,30.42
2022-07-30T18:02:04.285Z,30.47
2022-07-30T18:04:33.359Z,29.76
2022-07-30T18:07:01.250Z,29.78
2022-07-30T18:09:30.097Z,29.56
2022-07-30T18:12:07.221Z,29.24
2022-07-30T18:14:35.158Z,29.11
2022-07-30T18:17:05.195Z,29.39
2022-07-30T18:19:33.158Z,29.47
2022-07-30T18:22:02.221Z,29.12
2022-07-30T18:24:31.170Z,28.81
2022-07-30T18:26:59.216Z,28.66
2022-07-30T18:29:27.175Z,28.68
2022-07-30T18:31:55.140Z,28.46
2022-07-30T18:34:24.420Z,28.41
2022-07-30T18:36:53.144Z,28.29
2022-07-30T18:39:21.065Z,28.22
2022-07-30T18:41:48.950Z,28.11
2022-07-30T18:44:16.946Z,28.00
2022-07-30T18:46:44.839Z,27.77
2022-07-30T18:49:34.264Z,27.83
2022-07-30T18:52:04.359Z,27.69
2022-07-30T18:54:32.550Z,27.59
2022-07-30T18:57:00.468Z,27.58
2022-07-30T18:59:28.522Z,27.32
2022-07-30T19:01:56.588Z,27.44
2022-07-30T19:04:24.571Z,27.35
2022-07-30T19:06:52.745Z,27.39
2022-07-30T19:09:22.191Z,27.25
2022-07-30T19:11:50.171Z,27.12
2022-07-30T19:14:18.253Z,27.09
2022-07-30T19:16:47.300Z,27.04
2022-07-30T19:19:16.401Z,26.95
2022-07-30T19:21:44.306Z,26.83
2022-07-30T19:24:12.896Z,26.76
2022-07-30T19:26:42.301Z,26.81
2022-07-30T19:29:10.239Z,26.81
2022-07-30T19:31:38.312Z,26.54
2022-07-30T19:34:08.493Z,26.66
2022-07-30T19:36:36.523Z,26.37
2022-07-30T19:39:07.195Z,26.42
2022-07-30T19:41:40.592Z,26.50
2022-07-30T19:44:10.457Z,26.36
2022-07-30T19:46:38.705Z,26.32
2022-07-30T19:49:09.405Z,26.40
2022-07-30T19:52:07.265Z,26.27
2022-07-30T19:54:27.124Z,26.22
2022-07-30T19:56:55.010Z,26.24
2022-07-30T19:59:45.482Z,26.22
2022-07-30T20:02:13.549Z,26.20
2022-07-30T20:04:41.759Z,26.10
2022-07-30T20:07:11.844Z,26.03
2022-07-30T20:09:42.886Z,25.89
2022-07-30T20:12:11.153Z,25.85
2022-07-30T20:14:43.353Z,25.80
2022-07-30T20:17:11.712Z,25.83
2022-07-30T20:19:47.997Z,25.85
2022-07-30T20:22:17.010Z,25.74
2022-07-30T20:24:45.366Z,25.64
2022-07-30T20:27:37.194Z,25.81
2022-07-30T20:30:02.996Z,25.73
2022-07-30T20:32:30.902Z,25.71
2022-07-30T20:34:59.351Z,25.74
2022-07-30T20:37:27.768Z,25.72
2022-07-30T20:39:56.042Z,25.71
2022-07-30T20:42:24.605Z,25.56
2022-07-30T20:44:56.781Z,25.44
2022-07-30T20:47:34.923Z,25.40
2022-07-30T20:50:14.860Z,25.44
2022-07-30T20:52:46.948Z,25.34
2022-07-30T20:55:16.884Z,25.43
2022-07-30T20:58:01.160Z,25.37
2022-07-30T21:00:33.267Z,25.34
2022-07-30T21:03:03.293Z,25.23
2022-07-30T21:05:31.492Z,25.15
2022-07-30T21:08:00.008Z,25.04
2022-07-30T21:10:28.767Z,25.00
2022-07-30T21:12:58.518Z,24.99
2022-07-30T21:15:32.777Z,24.94
2022-07-30T21:18:02.990Z,24.92
2022-07-30T21:20:31.701Z,25.01
2022-07-30T21:23:05.343Z,24.98
2022-07-30T21:25:33.613Z,25.07
2022-07-30T21:28:02.897Z,25.12
2022-07-30T21:30:32.891Z,25.17
2022-07-30T21:33:02.247Z,25.24
2022-07-30T21:35:32.155Z,25.20
2022-07-30T21:38:00.585Z,25.20
2022-07-30T21:40:29.382Z,25.18
2022-07-30T21:42:57.398Z,25.26
2022-07-30T21:45:27.017Z,25.16
2022-07-30T21:48:10.795Z,25.15
2022-07-30T21:50:39.923Z,25.15
2022-07-30T21:53:08.395Z,25.04
2022-07-30T21:55:53.019Z,25.00
2022-07-30T21:58:23.937Z,24.89
2022-07-30T22:01:16.388Z,24.97
2022-07-30T22:04:03.604Z,24.93
2022-07-30T22:06:37.971Z,24.77
2022-07-30T22:09:19.290Z,24.79
2022-07-30T22:11:54.994Z,24.83
2022-07-30T22:14:25.739Z,24.84
2022-07-30T22:16:53.858Z,24.66
2022-07-30T22:19:23.964Z,24.45
2022-07-30T22:21:54.066Z,24.51
2022-07-30T22:24:29.531Z,24.49
2022-07-30T22:26:59.872Z,24.45
2022-07-30T22:29:34.220Z,24.37
2022-07-30T22:32:03.643Z,24.43
2022-07-30T22:34:33.562Z,24.42
2022-07-30T22:37:01.981Z,24.30
2022-07-30T22:39:32.217Z,24.29
2022-07-30T22:42:17.989Z,24.29
2022-07-30T22:44:47.571Z,24.30
2022-07-30T22:47:20.941Z,24.47
2022-07-30T22:49:58.123Z,24.43
2022-07-30T22:52:28.045Z,24.43
2022-07-30T22:55:09.282Z,24.43
2022-07-30T22:57:40.114Z,24.41
2022-07-30T23:00:12.370Z,24.26
2022-07-30T23:02:42.064Z,24.17
2022-07-30T23:05:12.397Z,24.10
2022-07-30T23:07:40.836Z,24.15
2022-07-30T23:10:17.134Z,24.24
2022-07-30T23:12:48.185Z,24.25
2022-07-30T23:15:16.409Z,24.18
2022-07-30T23:17:44.496Z,24.14
2022-07-30T23:20:15.724Z,24.13
2022-07-30T23:22:43.779Z,24.00
2022-07-30T23:25:12.194Z,23.87
2022-07-30T23:27:40.867Z,23.87
2022-07-30T23:30:10.172Z,23.91
2022-07-30T23:32:39.758Z,23.95
2022-07-30T23:35:08.811Z,23.96
2022-07-30T23:37:48.043Z,23.77
2022-07-30T23:40:17.189Z,23.73
2022-07-30T23:42:45.104Z,23.68
2022-07-30T23:45:13.030Z,23.72
2022-07-30T23:48:01.335Z,23.76
2022-07-30T23:50:29.149Z,23.78
2022-07-30T23:52:58.525Z,23.81
2022-07-30T23:55:27.108Z,23.51
2022-07-30T23:57:55.505Z,23.46
